Bei Facebook empfehlenBei Twitter postenGoogle plusPinterest

Das Wetter im Erzgebirge am 24.05.2017

Wetter und Klima am 24.05.2017 Holzhau im Erzgebirge (630m ü.NN)
Letzte gemessene Temperatur und Uhrzeit der Messung23:45:00 Uhr8.60 °C
Temperatur (Maximum / Höchstwert) und Uhrzeit der Messung15:15:00 Uhr15.10 °C
Temperatur (Minimum / Tiefstwert) und Uhrzeit der Messung06:15:007.10 °C
Errechneter Absolutwert der Temperaturschwankungen zwischen Tmin und Tmax des Tages8.00 K
Errechnete Tagesmitteltemperatur11.03646 °C
Gesamt - Niederschlag des Tages (in flüssiger Form)0.52 Liter / m²
Luftdruck (Maximum / Höchstwert) und Zeitpunkt der Messung23:15:00 Uhr1018.40 hPa
Luftdruck (Minimum / Tiefstwert) und Zeitpunkt der Messung01:45:00 Uhr1013.40 hPa
Errechneter Absolutwert der Luftdruckschwankungen des Tages5.00 hPa
Höchste gemessene Windgeschwindigkeit und Uhrzeit der Messung20:00:00 Uhr32.40 km/h
Errechnete Windhäufigkeit in Relation zu den Messwerten des Tages33.33333 %
Niedrigste Windkühle (Windchill) und Zeitpunkt der Messung06:30:00 Uhr6.80 °C
Taupunkt (Maximum / Höchstwert) und Uhrzeit der Messung01:30:00 Uhr10.90 °C
Taupunkt (Minimum / Tiefstwert) und Uhrzeit der Messung19:00:004.80 °C
Anzahl der automatisch eingelesenen Messwerte 96

Detaillierte Wetter- und Klima- Messwerte für den 24.05.2017 in Holzhau im Erzgebirge (630m ü.NN)
ZeitTemperaturLuftdruckRel. LuftfeuchteWindWindrichtungWindchillTaupunktNiederschlag l/m²
23:45:008.60 °C1018.30 hPa81.00 %5.50 °C0.52
23:30:008.60 °C1018.30 hPa80.00 %5.40 °C0.52
23:15:008.80 °C1018.40 hPa80.00 %5.50 °C0.52
23:00:008.90 °C1018.30 hPa79.00 %5.50 °C0.52
22:45:009.20 °C1018.10 hPa78.00 %5.60 °C0.52
22:30:009.40 °C1018.20 hPa78.00 %5.80 °C0.52
22:15:009.60 °C1018.00 hPa78.00 %6.00 °C0.52
22:00:009.80 °C1018.00 hPa77.00 %6.00 °C0.52
21:45:009.60 °C1018.00 hPa78.00 %15.48 km/hWNW9.60 °C6.00 °C0.52
21:30:009.60 °C1017.80 hPa76.00 %5.60 °C0.52
21:15:009.80 °C1017.60 hPa75.00 %5.60 °C0.52
21:00:009.90 °C1017.50 hPa74.00 %5.50 °C0.52
20:45:009.90 °C1017.50 hPa73.00 %5.30 °C0.52
20:30:0010.40 °C1017.50 hPa71.00 %5.40 °C0.52
20:15:0010.90 °C1017.40 hPa69.00 %21.96 km/hWNW10.50 °C5.40 °C0.52
20:00:0011.50 °C1017.40 hPa67.00 %32.40 km/hNW10.60 °C5.60 °C0.52
19:45:0012.20 °C1017.00 hPa66.00 %6.00 °C0.52
19:30:0011.90 °C1017.00 hPa67.00 %6.00 °C0.52
19:15:0011.60 °C1017.10 hPa65.00 %5.30 °C0.52
19:00:0011.60 °C1017.00 hPa63.00 %4.80 °C0.52
18:45:0012.20 °C1017.00 hPa61.00 %4.90 °C0.52
18:30:0012.90 °C1016.80 hPa59.00 %5.10 °C0.52
18:15:0013.20 °C1016.80 hPa61.00 %5.90 °C0.52
18:00:0013.20 °C1016.70 hPa61.00 %12.96 km/hNW13.20 °C5.90 °C0.52
17:45:0013.20 °C1017.00 hPa59.00 %20.88 km/hWNW13.20 °C5.40 °C0.52
17:30:0013.80 °C1017.00 hPa59.00 %5.90 °C0.52
17:15:0013.90 °C1017.00 hPa57.00 %5.50 °C0.52
17:00:0014.80 °C1017.10 hPa57.00 %19.44 km/hWNW15.10 °C6.40 °C0.52
16:45:0014.50 °C1016.90 hPa58.00 %6.30 °C0.52
16:30:0013.90 °C1017.00 hPa59.00 %9.00 km/hW13.90 °C6.00 °C0.52
16:15:0014.60 °C1017.10 hPa58.00 %16.92 km/hW14.60 °C6.40 °C0.52
16:00:0014.00 °C1017.00 hPa60.00 %32.40 km/hN13.60 °C6.40 °C0.52
15:45:0014.30 °C1017.00 hPa59.00 %6.40 °C0.52
15:30:0014.70 °C1017.10 hPa59.00 %3.96 km/hW14.70 °C6.80 °C0.52
15:15:0015.10 °C1017.00 hPa57.00 %11.52 km/hNW15.10 °C6.70 °C0.52
15:00:0014.50 °C1017.20 hPa60.00 %28.44 km/hNW14.30 °C6.80 °C0.52
14:45:0013.90 °C1017.40 hPa60.00 %10.44 km/hW13.90 °C6.30 °C0.52
14:30:0013.60 °C1017.10 hPa60.00 %29.88 km/hNNW13.20 °C6.00 °C0.52
14:15:0014.10 °C1017.20 hPa62.00 %6.90 °C0.52
14:00:0013.30 °C1017.30 hPa63.00 %3.96 km/hWNW13.30 °C6.40 °C0.52
13:45:0012.90 °C1017.50 hPa62.00 %14.40 km/hNNW12.90 °C5.80 °C0.52
13:30:0013.60 °C1017.30 hPa62.00 %9.00 km/hNW13.60 °C6.50 °C0.52
13:15:0013.20 °C1017.30 hPa64.00 %12.96 km/hNNW13.20 °C6.50 °C0.52
13:00:0013.20 °C1017.30 hPa62.00 %12.96 km/hWSW13.20 °C6.10 °C0.52
12:45:0013.20 °C1017.40 hPa63.00 %16.92 km/hWNW13.20 °C6.30 °C0.52
12:30:0012.90 °C1017.30 hPa65.00 %9.00 km/hWNW12.90 °C6.50 °C0.52
12:15:0013.40 °C1017.40 hPa64.00 %25.92 km/hWNW13.10 °C6.70 °C0.52
12:00:0013.40 °C1017.50 hPa65.00 %16.92 km/hNNW13.40 °C7.00 °C0.52
11:45:0012.90 °C1017.50 hPa69.00 %7.40 °C0.52
11:30:0011.40 °C1017.40 hPa74.00 %6.90 °C0.52
11:15:0010.10 °C1017.20 hPa76.00 %16.92 km/hWNW10.10 °C6.10 °C0.52
11:00:0010.10 °C1017.10 hPa74.00 %7.92 km/hN10.10 °C5.70 °C0.52
10:45:0010.30 °C1016.90 hPa76.00 %25.92 km/hNNW9.50 °C6.30 °C0.52
10:30:0010.30 °C1016.90 hPa76.00 %6.30 °C0.52
10:15:009.90 °C1016.80 hPa78.00 %6.20 °C0.52
10:00:009.60 °C1016.60 hPa77.00 %5.80 °C0.52
09:45:009.60 °C1016.40 hPa78.00 %6.00 °C0.52
09:30:009.10 °C1016.20 hPa81.00 %15.48 km/hNNW9.10 °C6.00 °C0.52
09:15:008.90 °C1016.00 hPa81.00 %27.36 km/hNNW7.80 °C5.80 °C0.52
09:00:008.90 °C1015.80 hPa81.00 %5.80 °C0.52
08:45:009.10 °C1015.40 hPa81.00 %3.96 km/hWNW9.10 °C6.00 °C0.52
08:30:008.60 °C1015.40 hPa83.00 %5.90 °C0.52
08:15:008.20 °C1015.50 hPa83.00 %5.50 °C0.52
08:00:008.40 °C1015.30 hPa84.00 %5.90 °C0.52
07:45:008.30 °C1015.40 hPa85.00 %5.90 °C0.52
07:30:008.10 °C1015.10 hPa85.00 %5.70 °C0.52
07:15:008.10 °C1014.90 hPa85.00 %5.70 °C0.52
07:00:008.10 °C1014.60 hPa85.00 %5.70 °C0.52
06:45:008.10 °C1014.80 hPa86.00 %5.90 °C0.52
06:30:007.60 °C1014.80 hPa86.00 %20.88 km/hNNW6.80 °C5.40 °C0.52
06:15:007.10 °C1014.50 hPa86.00 %4.90 °C0.52
06:00:007.10 °C1014.20 hPa86.00 %4.90 °C0.52
05:45:007.10 °C1014.50 hPa86.00 %4.90 °C0.52
05:30:007.30 °C1014.40 hPa86.00 %5.10 °C0.52
05:15:007.80 °C1014.20 hPa87.00 %5.80 °C0.52
05:00:008.10 °C1014.10 hPa87.00 %6.10 °C0.52
04:45:008.40 °C1014.10 hPa87.00 %9.00 km/hNNW8.40 °C6.40 °C0.52
04:30:008.80 °C1013.90 hPa89.00 %7.10 °C0.52
04:15:009.30 °C1014.00 hPa88.00 %7.40 °C0.52
04:00:009.90 °C1014.10 hPa88.00 %8.00 °C0.52
03:45:0010.40 °C1014.30 hPa89.00 %8.70 °C0.52
03:30:0010.80 °C1014.20 hPa89.00 %9.10 °C0.52
03:15:0011.10 °C1014.30 hPa89.00 %9.40 °C0.52
03:00:0011.50 °C1013.90 hPa90.00 %9.90 °C0.52
02:45:0011.70 °C1014.00 hPa91.00 %10.30 °C0.52
02:30:0011.90 °C1014.00 hPa91.00 %10.50 °C0.52
02:15:0011.90 °C1013.80 hPa90.00 %1.44 km/hWSW11.90 °C10.30 °C0.52
02:00:0012.10 °C1013.60 hPa90.00 %10.50 °C0.52
01:45:0012.20 °C1013.40 hPa90.00 %10.60 °C 
01:30:0012.30 °C1013.80 hPa91.00 %10.90 °C 
01:15:0012.30 °C1013.70 hPa90.00 %10.70 °C 
01:00:0012.20 °C1013.60 hPa90.00 %10.60 °C 
00:45:0012.20 °C1013.60 hPa89.00 %10.40 °C 
00:30:0012.30 °C1013.50 hPa89.00 %10.50 °C 
00:15:0012.30 °C1013.40 hPa88.00 %10.40 °C 
00:00:0012.40 °C1013.40 hPa89.00 %10.60 °C 

Permanenter Link zu dieser Seite: Wetter im Erzgebirge am 24.05.2017
Performance-Info: Die Erstellung der Seite / Statistik(en) / Tabelle(n) erforderte 5 Datenbankserver-Abfrage(n) und dauerte 124 Millisekunden. (Dieser Messwert ist von der Gesamt-Auslastung des Servers abhängig.)
Erzgebirge - Wetter | Erzgebirge - Wetter (Mobilgeräte) | Komplette Klimadatenbank